sensor_id;sensor_type;location;lat;lon;timestamp;P1;durP1;ratioP1;P2;durP2;ratioP2
495;SDS011;39559;48.630;9.162;2023-09-18T00:01:40;4.33;;;3.87;;
495;SDS011;39559;48.630;9.162;2023-09-18T00:06:10;4.53;;;4.13;;
495;SDS011;39559;48.630;9.162;2023-09-18T00:08:37;5.70;;;4.28;;
495;SDS011;39559;48.630;9.162;2023-09-18T00:11:04;4.93;;;4.53;;
495;SDS011;39559;48.630;9.162;2023-09-18T00:13:30;4.73;;;4.33;;
495;SDS011;39559;48.630;9.162;2023-09-18T00:15:56;6.87;;;4.87;;
495;SDS011;39559;48.630;9.162;2023-09-18T00:18:25;4.65;;;4.20;;
495;SDS011;39559;48.630;9.162;2023-09-18T00:20:50;4.33;;;3.93;;
495;SDS011;39559;48.630;9.162;2023-09-18T00:23:17;5.47;;;4.50;;
495;SDS011;39559;48.630;9.162;2023-09-18T00:25:42;6.80;;;5.20;;
495;SDS011;39559;48.630;9.162;2023-09-18T00:30:05;4.57;;;3.80;;
495;SDS011;39559;48.630;9.162;2023-09-18T00:32:32;4.32;;;3.92;;
495;SDS011;39559;48.630;9.162;2023-09-18T00:34:57;4.70;;;4.13;;
495;SDS011;39559;48.630;9.162;2023-09-18T00:37:23;4.60;;;4.10;;
495;SDS011;39559;48.630;9.162;2023-09-18T00:39:49;4.27;;;3.50;;
495;SDS011;39559;48.630;9.162;2023-09-18T00:42:15;4.75;;;4.35;;
495;SDS011;39559;48.630;9.162;2023-09-18T00:44:43;6.32;;;4.40;;
495;SDS011;39559;48.630;9.162;2023-09-18T00:47:09;5.15;;;4.65;;
495;SDS011;39559;48.630;9.162;2023-09-18T00:49:39;5.13;;;4.50;;
495;SDS011;39559;48.630;9.162;2023-09-18T00:54:01;5.57;;;4.45;;
495;SDS011;39559;48.630;9.162;2023-09-18T00:56:26;8.23;;;4.50;;
495;SDS011;39559;48.630;9.162;2023-09-18T00:58:52;7.10;;;4.80;;
495;SDS011;39559;48.630;9.162;2023-09-18T01:01:19;5.38;;;4.35;;
495;SDS011;39559;48.630;9.162;2023-09-18T01:03:48;5.75;;;4.70;;
495;SDS011;39559;48.630;9.162;2023-09-18T01:06:16;5.55;;;4.60;;
495;SDS011;39559;48.630;9.162;2023-09-18T01:08:45;5.88;;;4.63;;
495;SDS011;39559;48.630;9.162;2023-09-18T01:13:45;4.63;;;4.22;;
495;SDS011;39559;48.630;9.162;2023-09-18T01:17:55;7.03;;;5.65;;
495;SDS011;39559;48.630;9.162;2023-09-18T01:20:21;5.47;;;4.60;;
495;SDS011;39559;48.630;9.162;2023-09-18T01:22:47;4.83;;;4.43;;
495;SDS011;39559;48.630;9.162;2023-09-18T01:25:15;8.60;;;4.72;;
495;SDS011;39559;48.630;9.162;2023-09-18T01:27:41;6.72;;;4.40;;
495;SDS011;39559;48.630;9.162;2023-09-18T01:30:07;4.07;;;3.67;;
495;SDS011;39559;48.630;9.162;2023-09-18T01:32:33;25.03;;;4.70;;
495;SDS011;39559;48.630;9.162;2023-09-18T01:35:02;4.85;;;4.43;;
495;SDS011;39559;48.630;9.162;2023-09-18T01:37:31;4.50;;;4.10;;
495;SDS011;39559;48.630;9.162;2023-09-18T01:41:52;5.28;;;4.10;;
495;SDS011;39559;48.630;9.162;2023-09-18T01:44:18;4.50;;;4.10;;
495;SDS011;39559;48.630;9.162;2023-09-18T01:46:43;4.73;;;4.10;;
495;SDS011;39559;48.630;9.162;2023-09-18T01:49:09;7.80;;;4.13;;
495;SDS011;39559;48.630;9.162;2023-09-18T01:51:35;5.57;;;4.63;;
495;SDS011;39559;48.630;9.162;2023-09-18T01:54:01;6.20;;;4.63;;
495;SDS011;39559;48.630;9.162;2023-09-18T01:56:27;4.70;;;4.20;;
495;SDS011;39559;48.630;9.162;2023-09-18T01:58:52;4.70;;;4.30;;
495;SDS011;39559;48.630;9.162;2023-09-18T02:01:18;5.43;;;4.40;;
495;SDS011;39559;48.630;9.162;2023-09-18T02:05:47;6.03;;;4.45;;
495;SDS011;39559;48.630;9.162;2023-09-18T02:08:13;4.67;;;4.27;;
495;SDS011;39559;48.630;9.162;2023-09-18T02:10:39;5.13;;;4.50;;
495;SDS011;39559;48.630;9.162;2023-09-18T02:13:04;6.10;;;4.20;;
495;SDS011;39559;48.630;9.162;2023-09-18T02:15:30;6.70;;;5.53;;
495;SDS011;39559;48.630;9.162;2023-09-18T02:17:57;6.22;;;5.72;;
495;SDS011;39559;48.630;9.162;2023-09-18T02:20:22;7.10;;;5.40;;
495;SDS011;39559;48.630;9.162;2023-09-18T02:22:49;5.73;;;5.13;;
495;SDS011;39559;48.630;9.162;2023-09-18T02:25:14;8.40;;;5.27;;
495;SDS011;39559;48.630;9.162;2023-09-18T02:29:43;5.60;;;4.93;;
495;SDS011;39559;48.630;9.162;2023-09-18T02:32:09;6.07;;;4.67;;
495;SDS011;39559;48.630;9.162;2023-09-18T02:34:35;5.10;;;4.60;;
495;SDS011;39559;48.630;9.162;2023-09-18T02:37:01;4.87;;;4.10;;
495;SDS011;39559;48.630;9.162;2023-09-18T02:39:26;5.37;;;4.50;;
495;SDS011;39559;48.630;9.162;2023-09-18T02:41:52;5.60;;;5.10;;
495;SDS011;39559;48.630;9.162;2023-09-18T02:44:17;6.97;;;4.77;;
495;SDS011;39559;48.630;9.162;2023-09-18T02:46:43;5.97;;;5.23;;
495;SDS011;39559;48.630;9.162;2023-09-18T02:49:08;5.77;;;4.60;;
495;SDS011;39559;48.630;9.162;2023-09-18T02:53:39;6.60;;;5.05;;
495;SDS011;39559;48.630;9.162;2023-09-18T02:56:05;7.10;;;4.90;;
495;SDS011;39559;48.630;9.162;2023-09-18T02:58:31;5.87;;;4.90;;
495;SDS011;39559;48.630;9.162;2023-09-18T03:00:57;6.40;;;5.07;;
495;SDS011;39559;48.630;9.162;2023-09-18T03:03:24;16.35;;;5.68;;
495;SDS011;39559;48.630;9.162;2023-09-18T03:05:50;5.65;;;4.57;;
495;SDS011;39559;48.630;9.162;2023-09-18T03:08:16;8.07;;;5.13;;
495;SDS011;39559;48.630;9.162;2023-09-18T03:10:42;12.80;;;4.93;;
495;SDS011;39559;48.630;9.162;2023-09-18T03:13:09;6.15;;;4.70;;
495;SDS011;39559;48.630;9.162;2023-09-18T03:17:35;5.93;;;4.40;;
495;SDS011;39559;48.630;9.162;2023-09-18T03:20:01;8.23;;;4.80;;
495;SDS011;39559;48.630;9.162;2023-09-18T03:22:26;5.20;;;4.70;;
495;SDS011;39559;48.630;9.162;2023-09-18T03:24:52;5.50;;;5.03;;
495;SDS011;39559;48.630;9.162;2023-09-18T03:27:17;4.80;;;4.37;;
495;SDS011;39559;48.630;9.162;2023-09-18T03:29:43;5.30;;;4.80;;
495;SDS011;39559;48.630;9.162;2023-09-18T03:32:08;5.23;;;4.00;;
495;SDS011;39559;48.630;9.162;2023-09-18T03:34:38;6.00;;;4.93;;
495;SDS011;39559;48.630;9.162;2023-09-18T03:37:03;5.05;;;4.57;;
495;SDS011;39559;48.630;9.162;2023-09-18T03:41:31;5.78;;;5.18;;
495;SDS011;39559;48.630;9.162;2023-09-18T03:44:00;12.30;;;5.50;;
495;SDS011;39559;48.630;9.162;2023-09-18T03:46:25;5.68;;;5.18;;
495;SDS011;39559;48.630;9.162;2023-09-18T03:48:52;4.78;;;4.22;;
495;SDS011;39559;48.630;9.162;2023-09-18T03:51:17;5.43;;;4.80;;
495;SDS011;39559;48.630;9.162;2023-09-18T03:53:44;5.70;;;5.18;;
495;SDS011;39559;48.630;9.162;2023-09-18T03:56:10;3.80;;;3.40;;
495;SDS011;39559;48.630;9.162;2023-09-18T03:58:35;3.93;;;3.53;;
495;SDS011;39559;48.630;9.162;2023-09-18T04:01:01;6.97;;;4.27;;
495;SDS011;39559;48.630;9.162;2023-09-18T04:05:26;6.97;;;3.83;;
495;SDS011;39559;48.630;9.162;2023-09-18T04:07:52;5.23;;;3.90;;
495;SDS011;39559;48.630;9.162;2023-09-18T04:10:17;5.57;;;3.90;;
495;SDS011;39559;48.630;9.162;2023-09-18T04:12:48;4.47;;;3.60;;
495;SDS011;39559;48.630;9.162;2023-09-18T04:15:16;6.47;;;4.13;;
495;SDS011;39559;48.630;9.162;2023-09-18T04:17:43;3.67;;;3.38;;
495;SDS011;39559;48.630;9.162;2023-09-18T04:20:10;3.90;;;3.60;;
495;SDS011;39559;48.630;9.162;2023-09-18T04:22:41;4.60;;;3.70;;
495;SDS011;39559;48.630;9.162;2023-09-18T04:25:08;4.63;;;3.53;;
495;SDS011;39559;48.630;9.162;2023-09-18T04:29:23;6.03;;;4.03;;
495;SDS011;39559;48.630;9.162;2023-09-18T04:31:49;4.83;;;4.43;;
495;SDS011;39559;48.630;9.162;2023-09-18T04:34:14;4.50;;;4.10;;
495;SDS011;39559;48.630;9.162;2023-09-18T04:36:40;7.63;;;3.90;;
495;SDS011;39559;48.630;9.162;2023-09-18T04:39:05;4.73;;;3.60;;
495;SDS011;39559;48.630;9.162;2023-09-18T04:41:32;5.53;;;4.13;;
495;SDS011;39559;48.630;9.162;2023-09-18T04:43:59;4.38;;;3.45;;
495;SDS011;39559;48.630;9.162;2023-09-18T04:46:24;5.90;;;3.83;;
495;SDS011;39559;48.630;9.162;2023-09-18T04:48:50;5.37;;;4.27;;
495;SDS011;39559;48.630;9.162;2023-09-18T04:53:19;5.60;;;4.47;;
495;SDS011;39559;48.630;9.162;2023-09-18T04:55:45;4.40;;;4.00;;
495;SDS011;39559;48.630;9.162;2023-09-18T04:58:14;5.38;;;4.05;;
495;SDS011;39559;48.630;9.162;2023-09-18T05:00:41;15.68;;;4.75;;
495;SDS011;39559;48.630;9.162;2023-09-18T05:03:06;4.53;;;4.03;;
495;SDS011;39559;48.630;9.162;2023-09-18T05:05:36;4.15;;;3.75;;
495;SDS011;39559;48.630;9.162;2023-09-18T05:08:02;4.57;;;4.18;;
495;SDS011;39559;48.630;9.162;2023-09-18T05:10:32;4.60;;;4.15;;
495;SDS011;39559;48.630;9.162;2023-09-18T05:12:59;6.63;;;4.15;;
495;SDS011;39559;48.630;9.162;2023-09-18T05:17:16;5.05;;;4.50;;
495;SDS011;39559;48.630;9.162;2023-09-18T05:19:43;5.65;;;4.15;;
495;SDS011;39559;48.630;9.162;2023-09-18T05:22:09;4.75;;;4.35;;
495;SDS011;39559;48.630;9.162;2023-09-18T05:24:38;6.45;;;4.32;;
495;SDS011;39559;48.630;9.162;2023-09-18T05:27:04;4.78;;;4.28;;
495;SDS011;39559;48.630;9.162;2023-09-18T05:29:32;5.53;;;4.50;;
495;SDS011;39559;48.630;9.162;2023-09-18T05:31:59;4.97;;;4.47;;
495;SDS011;39559;48.630;9.162;2023-09-18T05:34:24;6.93;;;4.90;;
495;SDS011;39559;48.630;9.162;2023-09-18T05:36:50;4.83;;;4.23;;
495;SDS011;39559;48.630;9.162;2023-09-18T05:41:11;3.95;;;3.47;;
495;SDS011;39559;48.630;9.162;2023-09-18T05:43:37;8.97;;;4.00;;
495;SDS011;39559;48.630;9.162;2023-09-18T05:46:02;4.17;;;3.60;;
495;SDS011;39559;48.630;9.162;2023-09-18T05:48:28;4.20;;;3.80;;
495;SDS011;39559;48.630;9.162;2023-09-18T05:50:54;6.23;;;4.30;;
495;SDS011;39559;48.630;9.162;2023-09-18T05:53:20;5.30;;;4.00;;
495;SDS011;39559;48.630;9.162;2023-09-18T05:55:46;4.57;;;3.50;;
495;SDS011;39559;48.630;9.162;2023-09-18T05:58:12;4.57;;;4.18;;
495;SDS011;39559;48.630;9.162;2023-09-18T06:00:39;7.18;;;3.75;;
495;SDS011;39559;48.630;9.162;2023-09-18T06:05:08;5.32;;;4.28;;
495;SDS011;39559;48.630;9.162;2023-09-18T06:07:36;6.45;;;4.63;;
495;SDS011;39559;48.630;9.162;2023-09-18T06:10:02;4.15;;;3.75;;
495;SDS011;39559;48.630;9.162;2023-09-18T06:12:28;5.32;;;4.47;;
495;SDS011;39559;48.630;9.162;2023-09-18T06:14:55;4.30;;;3.95;;
495;SDS011;39559;48.630;9.162;2023-09-18T06:17:20;4.77;;;4.23;;
495;SDS011;39559;48.630;9.162;2023-09-18T06:19:46;4.40;;;4.00;;
495;SDS011;39559;48.630;9.162;2023-09-18T06:22:12;4.90;;;4.50;;
495;SDS011;39559;48.630;9.162;2023-09-18T06:24:39;5.37;;;4.83;;
495;SDS011;39559;48.630;9.162;2023-09-18T06:29:03;7.65;;;4.15;;
495;SDS011;39559;48.630;9.162;2023-09-18T06:31:29;4.27;;;3.77;;
495;SDS011;39559;48.630;9.162;2023-09-18T06:33:56;4.68;;;4.28;;
495;SDS011;39559;48.630;9.162;2023-09-18T06:36:22;4.40;;;4.10;;
495;SDS011;39559;48.630;9.162;2023-09-18T06:38:48;4.30;;;3.90;;
495;SDS011;39559;48.630;9.162;2023-09-18T06:41:13;4.40;;;3.93;;
495;SDS011;39559;48.630;9.162;2023-09-18T06:43:39;5.27;;;4.37;;
495;SDS011;39559;48.630;9.162;2023-09-18T06:46:06;5.50;;;4.50;;
495;SDS011;39559;48.630;9.162;2023-09-18T06:48:32;4.25;;;3.85;;
495;SDS011;39559;48.630;9.162;2023-09-18T06:52:59;3.95;;;3.65;;
495;SDS011;39559;48.630;9.162;2023-09-18T06:55:24;3.53;;;3.23;;
495;SDS011;39559;48.630;9.162;2023-09-18T06:57:50;5.17;;;3.60;;
495;SDS011;39559;48.630;9.162;2023-09-18T07:00:17;6.90;;;3.20;;
495;SDS011;39559;48.630;9.162;2023-09-18T07:02:46;3.10;;;2.80;;
495;SDS011;39559;48.630;9.162;2023-09-18T07:05:12;5.40;;;2.90;;
495;SDS011;39559;48.630;9.162;2023-09-18T07:07:38;3.57;;;3.13;;
495;SDS011;39559;48.630;9.162;2023-09-18T07:10:03;3.17;;;2.87;;
495;SDS011;39559;48.630;9.162;2023-09-18T07:12:29;4.20;;;3.03;;
495;SDS011;39559;48.630;9.162;2023-09-18T07:16:56;3.60;;;2.37;;
495;SDS011;39559;48.630;9.162;2023-09-18T07:19:22;3.20;;;2.60;;
495;SDS011;39559;48.630;9.162;2023-09-18T07:21:47;3.50;;;2.67;;
495;SDS011;39559;48.630;9.162;2023-09-18T07:24:13;3.63;;;2.90;;
495;SDS011;39559;48.630;9.162;2023-09-18T07:26:49;3.50;;;2.50;;
495;SDS011;39559;48.630;9.162;2023-09-18T07:29:15;4.40;;;3.40;;
495;SDS011;39559;48.630;9.162;2023-09-18T07:31:44;6.60;;;2.93;;
495;SDS011;39559;48.630;9.162;2023-09-18T07:34:10;5.50;;;3.07;;
495;SDS011;39559;48.630;9.162;2023-09-18T07:36:37;7.00;;;2.70;;
495;SDS011;39559;48.630;9.162;2023-09-18T07:40:52;2.73;;;2.43;;
495;SDS011;39559;48.630;9.162;2023-09-18T07:43:17;3.23;;;2.07;;
495;SDS011;39559;48.630;9.162;2023-09-18T07:45:43;7.73;;;2.90;;
495;SDS011;39559;48.630;9.162;2023-09-18T07:48:09;3.20;;;2.50;;
495;SDS011;39559;48.630;9.162;2023-09-18T07:50:34;2.73;;;2.30;;
495;SDS011;39559;48.630;9.162;2023-09-18T07:53:01;3.20;;;2.90;;
495;SDS011;39559;48.630;9.162;2023-09-18T07:55:27;4.70;;;2.80;;
495;SDS011;39559;48.630;9.162;2023-09-18T07:57:54;3.30;;;2.00;;
495;SDS011;39559;48.630;9.162;2023-09-18T08:00:20;2.60;;;2.20;;
495;SDS011;39559;48.630;9.162;2023-09-18T08:04:48;4.00;;;2.40;;
495;SDS011;39559;48.630;9.162;2023-09-18T08:07:14;4.07;;;2.10;;
495;SDS011;39559;48.630;9.162;2023-09-18T08:09:39;3.77;;;2.90;;
495;SDS011;39559;48.630;9.162;2023-09-18T08:12:06;3.13;;;2.00;;
495;SDS011;39559;48.630;9.162;2023-09-18T08:14:33;3.33;;;2.50;;
495;SDS011;39559;48.630;9.162;2023-09-18T08:17:03;4.03;;;2.20;;
495;SDS011;39559;48.630;9.162;2023-09-18T08:19:30;2.67;;;2.20;;
495;SDS011;39559;48.630;9.162;2023-09-18T08:22:00;2.70;;;2.03;;
495;SDS011;39559;48.630;9.162;2023-09-18T08:24:26;3.60;;;2.37;;
495;SDS011;39559;48.630;9.162;2023-09-18T08:28:44;2.43;;;2.20;;
495;SDS011;39559;48.630;9.162;2023-09-18T08:34:00;2.33;;;2.10;;
495;SDS011;39559;48.630;9.162;2023-09-18T08:36:25;3.07;;;2.40;;
495;SDS011;39559;48.630;9.162;2023-09-18T08:38:54;5.00;;;2.30;;
495;SDS011;39559;48.630;9.162;2023-09-18T08:41:19;2.83;;;2.33;;
495;SDS011;39559;48.630;9.162;2023-09-18T08:43:47;4.37;;;2.30;;
495;SDS011;39559;48.630;9.162;2023-09-18T08:46:15;15.63;;;2.30;;
495;SDS011;39559;48.630;9.162;2023-09-18T08:48:40;2.40;;;2.20;;
495;SDS011;39559;48.630;9.162;2023-09-18T08:52:41;4.70;;;1.97;;
495;SDS011;39559;48.630;9.162;2023-09-18T08:55:08;3.60;;;2.10;;
495;SDS011;39559;48.630;9.162;2023-09-18T08:57:34;2.60;;;2.40;;
495;SDS011;39559;48.630;9.162;2023-09-18T09:00:02;3.30;;;1.93;;
495;SDS011;39559;48.630;9.162;2023-09-18T09:02:32;4.80;;;2.20;;
495;SDS011;39559;48.630;9.162;2023-09-18T09:04:59;2.53;;;2.33;;
495;SDS011;39559;48.630;9.162;2023-09-18T09:07:25;2.40;;;2.20;;
495;SDS011;39559;48.630;9.162;2023-09-18T09:09:51;6.10;;;2.50;;
495;SDS011;39559;48.630;9.162;2023-09-18T09:12:46;3.37;;;2.83;;
495;SDS011;39559;48.630;9.162;2023-09-18T09:16:35;2.60;;;2.40;;
495;SDS011;39559;48.630;9.162;2023-09-18T09:19:04;2.50;;;2.30;;
495;SDS011;39559;48.630;9.162;2023-09-18T09:21:39;3.80;;;2.10;;
495;SDS011;39559;48.630;9.162;2023-09-18T09:24:08;2.30;;;2.10;;
495;SDS011;39559;48.630;9.162;2023-09-18T09:26:34;2.20;;;2.00;;
495;SDS011;39559;48.630;9.162;2023-09-18T09:29:14;3.00;;;2.00;;
495;SDS011;39559;48.630;9.162;2023-09-18T09:31:43;2.30;;;2.10;;
495;SDS011;39559;48.630;9.162;2023-09-18T09:34:09;2.43;;;2.20;;
495;SDS011;39559;48.630;9.162;2023-09-18T09:36:34;3.50;;;2.53;;
495;SDS011;39559;48.630;9.162;2023-09-18T09:40:31;3.10;;;2.60;;
495;SDS011;39559;48.630;9.162;2023-09-18T09:42:57;4.50;;;2.87;;
495;SDS011;39559;48.630;9.162;2023-09-18T09:45:26;5.47;;;2.53;;
495;SDS011;39559;48.630;9.162;2023-09-18T09:47:58;6.27;;;2.60;;
495;SDS011;39559;48.630;9.162;2023-09-18T09:50:26;3.97;;;2.83;;
495;SDS011;39559;48.630;9.162;2023-09-18T09:52:53;3.20;;;2.33;;
495;SDS011;39559;48.630;9.162;2023-09-18T09:55:30;2.40;;;2.20;;
495;SDS011;39559;48.630;9.162;2023-09-18T09:58:05;3.10;;;2.37;;
495;SDS011;39559;48.630;9.162;2023-09-18T10:00:35;2.50;;;2.30;;
495;SDS011;39559;48.630;9.162;2023-09-18T10:04:28;2.63;;;2.23;;
495;SDS011;39559;48.630;9.162;2023-09-18T10:07:06;2.30;;;2.10;;
495;SDS011;39559;48.630;9.162;2023-09-18T10:09:39;3.20;;;2.07;;
495;SDS011;39559;48.630;9.162;2023-09-18T10:12:11;2.33;;;2.13;;
495;SDS011;39559;48.630;9.162;2023-09-18T10:14:40;3.93;;;2.50;;
495;SDS011;39559;48.630;9.162;2023-09-18T10:17:15;3.00;;;2.37;;
495;SDS011;39559;48.630;9.162;2023-09-18T10:22:37;2.97;;;2.63;;
495;SDS011;39559;48.630;9.162;2023-09-18T10:25:14;2.53;;;2.33;;
495;SDS011;39559;48.630;9.162;2023-09-18T10:28:23;2.53;;;1.83;;
495;SDS011;39559;48.630;9.162;2023-09-18T10:30:51;2.33;;;2.13;;
495;SDS011;39559;48.630;9.162;2023-09-18T10:33:18;2.80;;;2.27;;
495;SDS011;39559;48.630;9.162;2023-09-18T10:35:44;2.47;;;2.13;;
495;SDS011;39559;48.630;9.162;2023-09-18T10:38:12;2.80;;;2.17;;
495;SDS011;39559;48.630;9.162;2023-09-18T10:40:41;2.70;;;2.20;;
495;SDS011;39559;48.630;9.162;2023-09-18T10:43:09;2.60;;;2.40;;
495;SDS011;39559;48.630;9.162;2023-09-18T10:45:36;2.87;;;2.37;;
495;SDS011;39559;48.630;9.162;2023-09-18T10:48:03;2.20;;;2.00;;
495;SDS011;39559;48.630;9.162;2023-09-18T10:52:19;3.50;;;2.20;;
495;SDS011;39559;48.630;9.162;2023-09-18T10:54:44;2.77;;;2.57;;
495;SDS011;39559;48.630;9.162;2023-09-18T10:57:10;2.23;;;2.03;;
495;SDS011;39559;48.630;9.162;2023-09-18T10:59:44;4.97;;;2.20;;
495;SDS011;39559;48.630;9.162;2023-09-18T11:02:13;2.73;;;2.53;;
495;SDS011;39559;48.630;9.162;2023-09-18T11:04:41;2.40;;;2.20;;
495;SDS011;39559;48.630;9.162;2023-09-18T11:07:08;2.20;;;2.00;;
495;SDS011;39559;48.630;9.162;2023-09-18T11:09:44;2.10;;;1.90;;
495;SDS011;39559;48.630;9.162;2023-09-18T11:12:10;3.47;;;2.37;;
495;SDS011;39559;48.630;9.162;2023-09-18T11:18:52;2.47;;;2.27;;
495;SDS011;39559;48.630;9.162;2023-09-18T11:21:30;2.00;;;1.80;;
495;SDS011;39559;48.630;9.162;2023-09-18T11:26:45;2.83;;;2.40;;
495;SDS011;39559;48.630;9.162;2023-09-18T11:29:16;2.50;;;2.20;;
495;SDS011;39559;48.630;9.162;2023-09-18T11:34:25;2.40;;;2.20;;
495;SDS011;39559;48.630;9.162;2023-09-18T11:36:58;7.37;;;2.20;;
495;SDS011;39559;48.630;9.162;2023-09-18T11:40:26;2.30;;;2.10;;
495;SDS011;39559;48.630;9.162;2023-09-18T11:45:59;2.30;;;2.10;;
495;SDS011;39559;48.630;9.162;2023-09-18T11:48:29;2.30;;;2.10;;
495;SDS011;39559;48.630;9.162;2023-09-18T11:50:58;2.30;;;2.10;;
495;SDS011;39559;48.630;9.162;2023-09-18T11:53:26;2.57;;;2.13;;
495;SDS011;39559;48.630;9.162;2023-09-18T11:55:53;3.47;;;2.50;;
495;SDS011;39559;48.630;9.162;2023-09-18T11:58:18;2.97;;;2.60;;
495;SDS011;39559;48.630;9.162;2023-09-18T12:00:51;2.17;;;2.00;;
495;SDS011;39559;48.630;9.162;2023-09-18T12:04:06;3.00;;;2.70;;
495;SDS011;39559;48.630;9.162;2023-09-18T12:06:34;2.43;;;2.23;;
495;SDS011;39559;48.630;9.162;2023-09-18T12:09:04;3.30;;;2.00;;
495;SDS011;39559;48.630;9.162;2023-09-18T12:11:32;3.10;;;1.97;;
495;SDS011;39559;48.630;9.162;2023-09-18T12:14:03;3.63;;;1.90;;
495;SDS011;39559;48.630;9.162;2023-09-18T12:16:29;2.20;;;2.00;;
495;SDS011;39559;48.630;9.162;2023-09-18T12:18:55;2.10;;;1.90;;
495;SDS011;39559;48.630;9.162;2023-09-18T12:21:22;2.63;;;2.43;;
495;SDS011;39559;48.630;9.162;2023-09-18T12:23:48;2.50;;;2.13;;
495;SDS011;39559;48.630;9.162;2023-09-18T12:28:01;4.27;;;2.50;;
495;SDS011;39559;48.630;9.162;2023-09-18T12:30:29;2.67;;;2.17;;
495;SDS011;39559;48.630;9.162;2023-09-18T12:32:59;2.30;;;1.87;;
495;SDS011;39559;48.630;9.162;2023-09-18T12:35:29;2.63;;;1.87;;
495;SDS011;39559;48.630;9.162;2023-09-18T12:37:58;2.40;;;2.20;;
495;SDS011;39559;48.630;9.162;2023-09-18T12:40:26;2.73;;;2.27;;
495;SDS011;39559;48.630;9.162;2023-09-18T12:42:58;2.43;;;2.23;;
495;SDS011;39559;48.630;9.162;2023-09-18T12:45:25;2.10;;;2.00;;
495;SDS011;39559;48.630;9.162;2023-09-18T12:47:51;4.40;;;1.90;;
495;SDS011;39559;48.630;9.162;2023-09-18T12:51:58;2.63;;;1.87;;
495;SDS011;39559;48.630;9.162;2023-09-18T12:54:44;1.97;;;1.80;;
495;SDS011;39559;48.630;9.162;2023-09-18T12:57:12;3.17;;;2.17;;
495;SDS011;39559;48.630;9.162;2023-09-18T12:59:41;2.03;;;1.93;;
495;SDS011;39559;48.630;9.162;2023-09-18T13:02:07;2.50;;;2.00;;
495;SDS011;39559;48.630;9.162;2023-09-18T13:04:36;1.90;;;1.80;;
495;SDS011;39559;48.630;9.162;2023-09-18T13:07:03;2.57;;;1.97;;
495;SDS011;39559;48.630;9.162;2023-09-18T13:09:34;2.87;;;2.17;;
495;SDS011;39559;48.630;9.162;2023-09-18T13:12:03;2.53;;;2.00;;
495;SDS011;39559;48.630;9.162;2023-09-18T13:15:56;2.37;;;2.17;;
495;SDS011;39559;48.630;9.162;2023-09-18T13:18:25;2.50;;;2.10;;
495;SDS011;39559;48.630;9.162;2023-09-18T13:20:51;2.40;;;2.20;;
495;SDS011;39559;48.630;9.162;2023-09-18T13:23:17;2.67;;;1.80;;
495;SDS011;39559;48.630;9.162;2023-09-18T13:25:43;2.10;;;1.90;;
495;SDS011;39559;48.630;9.162;2023-09-18T13:28:11;2.80;;;2.40;;
495;SDS011;39559;48.630;9.162;2023-09-18T13:30:39;2.20;;;1.90;;
495;SDS011;39559;48.630;9.162;2023-09-18T13:33:07;2.40;;;1.97;;
495;SDS011;39559;48.630;9.162;2023-09-18T13:35:35;2.00;;;1.90;;
495;SDS011;39559;48.630;9.162;2023-09-18T13:39:48;2.90;;;2.30;;
495;SDS011;39559;48.630;9.162;2023-09-18T13:42:14;3.43;;;2.40;;
495;SDS011;39559;48.630;9.162;2023-09-18T13:44:39;2.40;;;2.20;;
495;SDS011;39559;48.630;9.162;2023-09-18T13:47:05;3.30;;;2.23;;
495;SDS011;39559;48.630;9.162;2023-09-18T13:49:31;2.00;;;1.80;;
495;SDS011;39559;48.630;9.162;2023-09-18T13:51:57;2.80;;;2.10;;
495;SDS011;39559;48.630;9.162;2023-09-18T13:54:22;2.20;;;2.00;;
495;SDS011;39559;48.630;9.162;2023-09-18T13:56:48;2.43;;;2.23;;
495;SDS011;39559;48.630;9.162;2023-09-18T13:59:13;2.77;;;2.40;;
495;SDS011;39559;48.630;9.162;2023-09-18T14:03:43;1.83;;;1.73;;
495;SDS011;39559;48.630;9.162;2023-09-18T14:06:10;3.03;;;2.20;;
495;SDS011;39559;48.630;9.162;2023-09-18T14:08:36;2.30;;;2.10;;
495;SDS011;39559;48.630;9.162;2023-09-18T14:11:04;3.20;;;2.13;;
495;SDS011;39559;48.630;9.162;2023-09-18T14:13:31;2.63;;;2.43;;
495;SDS011;39559;48.630;9.162;2023-09-18T14:15:58;2.20;;;1.73;;
495;SDS011;39559;48.630;9.162;2023-09-18T14:18:24;2.07;;;1.90;;
495;SDS011;39559;48.630;9.162;2023-09-18T14:20:50;3.07;;;2.10;;
495;SDS011;39559;48.630;9.162;2023-09-18T14:23:16;2.70;;;2.30;;
495;SDS011;39559;48.630;9.162;2023-09-18T14:27:39;2.57;;;2.00;;
495;SDS011;39559;48.630;9.162;2023-09-18T14:30:05;2.40;;;2.20;;
495;SDS011;39559;48.630;9.162;2023-09-18T14:32:32;3.00;;;2.03;;
495;SDS011;39559;48.630;9.162;2023-09-18T14:34:58;2.83;;;2.50;;
495;SDS011;39559;48.630;9.162;2023-09-18T14:37:27;2.20;;;1.90;;
495;SDS011;39559;48.630;9.162;2023-09-18T14:39:53;2.57;;;2.37;;
495;SDS011;39559;48.630;9.162;2023-09-18T14:42:18;2.47;;;2.27;;
495;SDS011;39559;48.630;9.162;2023-09-18T14:44:44;3.53;;;2.33;;
495;SDS011;39559;48.630;9.162;2023-09-18T14:47:11;3.93;;;2.60;;
495;SDS011;39559;48.630;9.162;2023-09-18T14:51:34;2.77;;;2.40;;
495;SDS011;39559;48.630;9.162;2023-09-18T14:54:00;2.43;;;2.07;;
495;SDS011;39559;48.630;9.162;2023-09-18T14:56:27;2.27;;;2.07;;
495;SDS011;39559;48.630;9.162;2023-09-18T14:58:53;3.10;;;2.27;;
495;SDS011;39559;48.630;9.162;2023-09-18T15:01:20;2.00;;;1.83;;
495;SDS011;39559;48.630;9.162;2023-09-18T15:03:47;2.20;;;2.00;;
495;SDS011;39559;48.630;9.162;2023-09-18T15:06:15;2.30;;;2.10;;
495;SDS011;39559;48.630;9.162;2023-09-18T15:08:41;2.13;;;1.80;;
495;SDS011;39559;48.630;9.162;2023-09-18T15:11:07;2.20;;;2.00;;
495;SDS011;39559;48.630;9.162;2023-09-18T15:15:45;2.10;;;1.90;;
495;SDS011;39559;48.630;9.162;2023-09-18T15:18:11;2.37;;;1.90;;
495;SDS011;39559;48.630;9.162;2023-09-18T15:20:37;4.73;;;2.17;;
495;SDS011;39559;48.630;9.162;2023-09-18T15:23:04;2.20;;;2.00;;
495;SDS011;39559;48.630;9.162;2023-09-18T15:25:31;2.03;;;1.83;;
495;SDS011;39559;48.630;9.162;2023-09-18T15:28:00;2.20;;;2.00;;
495;SDS011;39559;48.630;9.162;2023-09-18T15:30:26;2.13;;;1.93;;
495;SDS011;39559;48.630;9.162;2023-09-18T15:32:52;3.30;;;2.37;;
495;SDS011;39559;48.630;9.162;2023-09-18T15:35:19;2.43;;;2.23;;
495;SDS011;39559;48.630;9.162;2023-09-18T15:39:41;4.13;;;2.00;;
495;SDS011;39559;48.630;9.162;2023-09-18T15:42:07;2.57;;;2.37;;
495;SDS011;39559;48.630;9.162;2023-09-18T15:44:33;2.27;;;2.07;;
495;SDS011;39559;48.630;9.162;2023-09-18T15:47:01;2.07;;;1.87;;
495;SDS011;39559;48.630;9.162;2023-09-18T15:49:26;2.37;;;2.17;;
495;SDS011;39559;48.630;9.162;2023-09-18T15:51:52;2.13;;;1.93;;
495;SDS011;39559;48.630;9.162;2023-09-18T15:54:17;1.77;;;1.67;;
495;SDS011;39559;48.630;9.162;2023-09-18T15:56:43;2.03;;;1.83;;
495;SDS011;39559;48.630;9.162;2023-09-18T15:59:09;2.20;;;2.00;;
495;SDS011;39559;48.630;9.162;2023-09-18T16:03:36;4.07;;;2.03;;
495;SDS011;39559;48.630;9.162;2023-09-18T16:06:05;2.13;;;1.93;;
495;SDS011;39559;48.630;9.162;2023-09-18T16:08:31;2.33;;;2.13;;
495;SDS011;39559;48.630;9.162;2023-09-18T16:10:57;2.00;;;1.70;;
495;SDS011;39559;48.630;9.162;2023-09-18T16:13:24;3.93;;;1.93;;
495;SDS011;39559;48.630;9.162;2023-09-18T16:15:50;5.53;;;1.90;;
495;SDS011;39559;48.630;9.162;2023-09-18T16:18:16;2.53;;;2.10;;
495;SDS011;39559;48.630;9.162;2023-09-18T16:20:42;3.63;;;2.17;;
495;SDS011;39559;48.630;9.162;2023-09-18T16:23:07;1.77;;;1.67;;
495;SDS011;39559;48.630;9.162;2023-09-18T16:27:31;2.77;;;1.63;;
495;SDS011;39559;48.630;9.162;2023-09-18T16:29:57;2.73;;;1.90;;
495;SDS011;39559;48.630;9.162;2023-09-18T16:32:23;4.00;;;1.90;;
495;SDS011;39559;48.630;9.162;2023-09-18T16:34:49;2.20;;;2.00;;
495;SDS011;39559;48.630;9.162;2023-09-18T16:37:15;2.20;;;2.00;;
495;SDS011;39559;48.630;9.162;2023-09-18T16:39:40;2.20;;;2.00;;
495;SDS011;39559;48.630;9.162;2023-09-18T16:42:07;5.00;;;2.10;;
495;SDS011;39559;48.630;9.162;2023-09-18T16:44:33;2.50;;;2.30;;
495;SDS011;39559;48.630;9.162;2023-09-18T16:46:58;2.60;;;2.40;;
495;SDS011;39559;48.630;9.162;2023-09-18T16:51:26;2.03;;;1.83;;